sensor_id;sensor_type;location;lat;lon;timestamp;pressure;altitude;pressure_sealevel;temperature;humidity
10176;BME280;18221;38.704;0.152;2023-01-20T00:05:52;98342.28;;;14.78;34.33
10176;BME280;18221;38.704;0.152;2023-01-20T00:08:20;98350.44;;;14.85;34.85
10176;BME280;18221;38.704;0.152;2023-01-20T00:10:48;98347.84;;;14.92;34.52
10176;BME280;18221;38.704;0.152;2023-01-20T00:13:17;98334.28;;;14.78;35.12
10176;BME280;18221;38.704;0.152;2023-01-20T00:15:45;98326.19;;;14.87;34.63
10176;BME280;18221;38.704;0.152;2023-01-20T00:18:14;98316.97;;;14.89;34.94
10176;BME280;18221;38.704;0.152;2023-01-20T00:20:42;98316.75;;;14.76;35.34
10176;BME280;18221;38.704;0.152;2023-01-20T00:23:11;98305.00;;;14.85;35.24
10176;BME280;18221;38.704;0.152;2023-01-20T00:25:39;98316.75;;;14.76;35.42
10176;BME280;18221;38.704;0.152;2023-01-20T00:28:07;98309.78;;;14.75;35.41
10176;BME280;18221;38.704;0.152;2023-01-20T00:30:36;98305.44;;;14.74;35.65
10176;BME280;18221;38.704;0.152;2023-01-20T00:33:04;98303.78;;;14.73;35.56
10176;BME280;18221;38.704;0.152;2023-01-20T00:35:32;98301.19;;;14.79;35.85
10176;BME280;18221;38.704;0.152;2023-01-20T00:38:00;98294.09;;;14.87;35.64
10176;BME280;18221;38.704;0.152;2023-01-20T00:40:30;98297.88;;;14.77;35.89
10176;BME280;18221;38.704;0.152;2023-01-20T00:42:58;98295.50;;;14.82;36.10
10176;BME280;18221;38.704;0.152;2023-01-20T00:45:27;98309.31;;;15.01;35.69
10176;BME280;18221;38.704;0.152;2023-01-20T00:47:55;98299.19;;;15.11;35.65
10176;BME280;18221;38.704;0.152;2023-01-20T00:50:23;98302.50;;;14.98;35.72
10176;BME280;18221;38.704;0.152;2023-01-20T00:52:51;98300.66;;;14.99;35.72
10176;BME280;18221;38.704;0.152;2023-01-20T00:55:19;98298.28;;;15.04;35.60
10176;BME280;18221;38.704;0.152;2023-01-20T00:57:50;98294.66;;;15.11;35.50
10176;BME280;18221;38.704;0.152;2023-01-20T01:00:18;98302.31;;;15.00;35.53
10176;BME280;18221;38.704;0.152;2023-01-20T01:02:47;98304.72;;;14.95;36.05
10176;BME280;18221;38.704;0.152;2023-01-20T01:05:15;98294.91;;;15.02;36.08
10176;BME280;18221;38.704;0.152;2023-01-20T01:07:43;98292.25;;;15.02;36.16
10176;BME280;18221;38.704;0.152;2023-01-20T01:10:11;98282.75;;;14.99;36.22
10176;BME280;18221;38.704;0.152;2023-01-20T01:12:39;98290.78;;;14.84;36.21
10176;BME280;18221;38.704;0.152;2023-01-20T01:15:10;98295.22;;;14.92;36.42
10176;BME280;18221;38.704;0.152;2023-01-20T01:17:39;98284.69;;;15.05;36.20
10176;BME280;18221;38.704;0.152;2023-01-20T01:20:09;98278.69;;;15.18;36.03
10176;BME280;18221;38.704;0.152;2023-01-20T01:22:37;98276.13;;;15.10;35.84
10176;BME280;18221;38.704;0.152;2023-01-20T01:25:06;98286.72;;;15.18;35.78
10176;BME280;18221;38.704;0.152;2023-01-20T01:27:35;98301.28;;;15.15;35.96
10176;BME280;18221;38.704;0.152;2023-01-20T01:30:04;98315.31;;;15.32;35.65
10176;BME280;18221;38.704;0.152;2023-01-20T01:32:34;98327.94;;;15.38;35.69
10176;BME280;18221;38.704;0.152;2023-01-20T01:35:02;98316.84;;;15.41;35.37
10176;BME280;18221;38.704;0.152;2023-01-20T01:37:31;98315.94;;;15.34;35.99
10176;BME280;18221;38.704;0.152;2023-01-20T01:39:59;98296.47;;;15.55;35.18
10176;BME280;18221;38.704;0.152;2023-01-20T01:42:27;98312.63;;;15.32;35.94
10176;BME280;18221;38.704;0.152;2023-01-20T01:45:23;98296.84;;;15.37;35.69
10176;BME280;18221;38.704;0.152;2023-01-20T01:48:01;98300.63;;;15.28;36.29
10176;BME280;18221;38.704;0.152;2023-01-20T01:50:38;98283.78;;;15.27;36.31
10176;BME280;18221;38.704;0.152;2023-01-20T01:53:13;98266.69;;;15.43;36.26
10176;BME280;18221;38.704;0.152;2023-01-20T01:55:46;98274.34;;;15.31;36.03
10176;BME280;18221;38.704;0.152;2023-01-20T01:58:19;98280.06;;;15.43;36.32
10176;BME280;18221;38.704;0.152;2023-01-20T02:00:50;98297.47;;;15.39;36.34
10176;BME280;18221;38.704;0.152;2023-01-20T02:03:20;98284.13;;;15.54;36.19
10176;BME280;18221;38.704;0.152;2023-01-20T02:05:51;98273.97;;;15.49;36.14
10176;BME280;18221;38.704;0.152;2023-01-20T02:08:20;98284.56;;;15.57;36.45
10176;BME280;18221;38.704;0.152;2023-01-20T02:10:48;98283.31;;;15.24;36.58
10176;BME280;18221;38.704;0.152;2023-01-20T02:13:16;98297.47;;;15.39;36.64
10176;BME280;18221;38.704;0.152;2023-01-20T02:15:56;98285.03;;;15.61;36.40
10176;BME280;18221;38.704;0.152;2023-01-20T02:18:50;98271.19;;;15.42;36.97
10176;BME280;18221;38.704;0.152;2023-01-20T02:22:07;98277.81;;;15.61;36.31
10176;BME280;18221;38.704;0.152;2023-01-20T02:25:37;98285.47;;;15.64;36.26
10176;BME280;18221;38.704;0.152;2023-01-20T02:28:52;98291.56;;;15.58;36.35
10176;BME280;18221;38.704;0.152;2023-01-20T02:32:32;98287.97;;;15.36;36.90
10176;BME280;18221;38.704;0.152;2023-01-20T02:35:10;98296.09;;;15.58;36.83
10176;BME280;18221;38.704;0.152;2023-01-20T02:37:46;98306.47;;;15.67;36.85
10176;BME280;18221;38.704;0.152;2023-01-20T02:40:32;98311.03;;;15.67;36.58
10176;BME280;18221;38.704;0.152;2023-01-20T02:43:15;98322.38;;;15.54;36.86
10176;BME280;18221;38.704;0.152;2023-01-20T02:45:49;98306.34;;;15.54;37.02
10176;BME280;18221;38.704;0.152;2023-01-20T02:48:27;98309.94;;;15.47;36.98
10176;BME280;18221;38.704;0.152;2023-01-20T02:51:04;98306.72;;;15.51;37.17
10176;BME280;18221;38.704;0.152;2023-01-20T02:53:41;98309.72;;;15.63;36.85
10176;BME280;18221;38.704;0.152;2023-01-20T02:56:12;98288.00;;;15.51;36.94
10176;BME280;18221;38.704;0.152;2023-01-20T02:58:47;98288.63;;;15.53;36.88
10176;BME280;18221;38.704;0.152;2023-01-20T03:01:24;98254.84;;;15.52;37.33
10176;BME280;18221;38.704;0.152;2023-01-20T03:03:58;98273.31;;;15.47;37.12
10176;BME280;18221;38.704;0.152;2023-01-20T03:06:33;98283.19;;;15.61;37.10
10176;BME280;18221;38.704;0.152;2023-01-20T03:09:08;98283.75;;;15.78;36.88
10176;BME280;18221;38.704;0.152;2023-01-20T03:11:44;98276.53;;;15.57;37.18
10176;BME280;18221;38.704;0.152;2023-01-20T03:14:14;98268.44;;;15.51;37.44
10176;BME280;18221;38.704;0.152;2023-01-20T03:16:44;98261.09;;;15.59;37.07
10176;BME280;18221;38.704;0.152;2023-01-20T03:19:18;98251.81;;;15.55;37.15
10176;BME280;18221;38.704;0.152;2023-01-20T03:21:47;98268.25;;;15.52;37.03
10176;BME280;18221;38.704;0.152;2023-01-20T03:24:15;98272.72;;;15.66;37.37
10176;BME280;18221;38.704;0.152;2023-01-20T03:26:44;98268.41;;;15.86;36.63
10176;BME280;18221;38.704;0.152;2023-01-20T03:29:12;98278.09;;;15.87;36.53
10176;BME280;18221;38.704;0.152;2023-01-20T03:31:46;98262.25;;;15.50;37.31
10176;BME280;18221;38.704;0.152;2023-01-20T03:34:20;98282.59;;;15.66;36.64
10176;BME280;18221;38.704;0.152;2023-01-20T03:36:51;98283.19;;;15.82;36.56
10176;BME280;18221;38.704;0.152;2023-01-20T03:39:21;98252.66;;;15.77;36.67
10176;BME280;18221;38.704;0.152;2023-01-20T03:42:04;98257.03;;;15.63;37.14
10176;BME280;18221;38.704;0.152;2023-01-20T03:44:55;98276.25;;;15.52;37.15
10176;BME280;18221;38.704;0.152;2023-01-20T03:47:42;98281.50;;;15.60;37.24
10176;BME280;18221;38.704;0.152;2023-01-20T03:50:32;98282.28;;;15.75;36.83
10176;BME280;18221;38.704;0.152;2023-01-20T03:53:14;98309.31;;;15.80;37.02
10176;BME280;18221;38.704;0.152;2023-01-20T03:55:50;98297.41;;;16.04;36.06
10176;BME280;18221;38.704;0.152;2023-01-20T03:58:27;98299.25;;;16.03;36.21
10176;BME280;18221;38.704;0.152;2023-01-20T04:00:56;98325.78;;;15.98;36.27
10176;BME280;18221;38.704;0.152;2023-01-20T04:03:28;98316.44;;;15.73;36.94
10176;BME280;18221;38.704;0.152;2023-01-20T04:06:02;98314.88;;;15.79;36.76
10176;BME280;18221;38.704;0.152;2023-01-20T04:08:35;98328.56;;;15.90;36.83
10176;BME280;18221;38.704;0.152;2023-01-20T04:11:06;98335.97;;;15.88;36.55
10176;BME280;18221;38.704;0.152;2023-01-20T04:13:35;98322.66;;;15.95;36.41
10176;BME280;18221;38.704;0.152;2023-01-20T04:16:11;98328.81;;;15.74;37.05
10176;BME280;18221;38.704;0.152;2023-01-20T04:18:41;98334.28;;;15.66;37.57
10176;BME280;18221;38.704;0.152;2023-01-20T04:21:16;98334.56;;;15.71;37.33
10176;BME280;18221;38.704;0.152;2023-01-20T04:23:53;98326.47;;;15.86;37.55
10176;BME280;18221;38.704;0.152;2023-01-20T04:26:22;98345.25;;;15.71;37.76
10176;BME280;18221;38.704;0.152;2023-01-20T04:28:51;98354.56;;;15.75;37.25
10176;BME280;18221;38.704;0.152;2023-01-20T04:31:19;98339.97;;;15.78;37.29
10176;BME280;18221;38.704;0.152;2023-01-20T04:33:47;98331.69;;;15.73;37.27
10176;BME280;18221;38.704;0.152;2023-01-20T04:36:17;98349.19;;;15.75;37.20
10176;BME280;18221;38.704;0.152;2023-01-20T04:38:45;98361.41;;;15.99;36.68
10176;BME280;18221;38.704;0.152;2023-01-20T04:41:13;98338.41;;;16.04;36.77
10176;BME280;18221;38.704;0.152;2023-01-20T04:43:43;98340.81;;;15.78;37.39
10176;BME280;18221;38.704;0.152;2023-01-20T04:46:12;98336.66;;;15.76;37.60
10176;BME280;18221;38.704;0.152;2023-01-20T04:48:43;98349.28;;;15.82;37.29
10176;BME280;18221;38.704;0.152;2023-01-20T04:51:12;98359.44;;;15.86;37.38
10176;BME280;18221;38.704;0.152;2023-01-20T04:53:42;98369.63;;;15.76;37.54
10176;BME280;18221;38.704;0.152;2023-01-20T04:56:11;98367.09;;;15.75;37.28
10176;BME280;18221;38.704;0.152;2023-01-20T04:58:40;98370.13;;;15.86;36.97
10176;BME280;18221;38.704;0.152;2023-01-20T05:01:09;98344.31;;;15.79;37.46
10176;BME280;18221;38.704;0.152;2023-01-20T05:03:37;98362.44;;;15.62;37.43
10176;BME280;18221;38.704;0.152;2023-01-20T05:06:06;98373.03;;;15.70;37.42
10176;BME280;18221;38.704;0.152;2023-01-20T05:08:34;98389.78;;;15.93;36.55
10176;BME280;18221;38.704;0.152;2023-01-20T05:11:04;98377.47;;;16.14;36.11
10176;BME280;18221;38.704;0.152;2023-01-20T05:13:32;98379.44;;;15.90;36.72
10176;BME280;18221;38.704;0.152;2023-01-20T05:16:05;98372.75;;;15.80;36.83
10176;BME280;18221;38.704;0.152;2023-01-20T05:18:34;98377.91;;;15.81;37.21
10176;BME280;18221;38.704;0.152;2023-01-20T05:21:04;98391.25;;;15.96;37.07
10176;BME280;18221;38.704;0.152;2023-01-20T05:23:34;98404.09;;;16.22;36.31
10176;BME280;18221;38.704;0.152;2023-01-20T05:26:04;98404.75;;;16.24;36.21
10176;BME280;18221;38.704;0.152;2023-01-20T05:28:33;98418.91;;;16.18;36.36
10176;BME280;18221;38.704;0.152;2023-01-20T05:31:01;98426.72;;;16.34;35.93
10176;BME280;18221;38.704;0.152;2023-01-20T05:33:29;98416.50;;;16.23;36.22
10176;BME280;18221;38.704;0.152;2023-01-20T05:35:57;98424.19;;;16.32;35.99
10176;BME280;18221;38.704;0.152;2023-01-20T05:38:26;98422.94;;;16.28;36.07
10176;BME280;18221;38.704;0.152;2023-01-20T05:40:59;98426.63;;;16.27;36.26
10176;BME280;18221;38.704;0.152;2023-01-20T05:43:29;98419.03;;;16.10;36.32
10176;BME280;18221;38.704;0.152;2023-01-20T05:45:57;98429.81;;;16.16;36.61
10176;BME280;18221;38.704;0.152;2023-01-20T05:48:25;98428.06;;;16.08;36.70
10176;BME280;18221;38.704;0.152;2023-01-20T05:50:54;98421.47;;;16.26;36.32
10176;BME280;18221;38.704;0.152;2023-01-20T05:53:22;98439.81;;;16.08;36.41
10176;BME280;18221;38.704;0.152;2023-01-20T05:55:58;98423.38;;;16.11;36.43
10176;BME280;18221;38.704;0.152;2023-01-20T05:58:28;98444.13;;;16.08;35.90
10176;BME280;18221;38.704;0.152;2023-01-20T06:01:04;98469.13;;;16.30;36.22
10176;BME280;18221;38.704;0.152;2023-01-20T06:03:32;98469.66;;;16.40;35.74
10176;BME280;18221;38.704;0.152;2023-01-20T06:06:01;98467.06;;;16.32;35.82
10176;BME280;18221;38.704;0.152;2023-01-20T06:08:29;98456.94;;;16.28;36.12
10176;BME280;18221;38.704;0.152;2023-01-20T06:10:57;98480.06;;;16.14;36.07
10176;BME280;18221;38.704;0.152;2023-01-20T06:13:27;98468.13;;;16.17;36.05
10176;BME280;18221;38.704;0.152;2023-01-20T06:15:56;98473.50;;;16.17;36.27
10176;BME280;18221;38.704;0.152;2023-01-20T06:18:24;98476.84;;;16.19;36.32
10176;BME280;18221;38.704;0.152;2023-01-20T06:20:56;98461.72;;;16.11;36.37
10176;BME280;18221;38.704;0.152;2023-01-20T06:23:25;98477.72;;;15.90;36.87
10176;BME280;18221;38.704;0.152;2023-01-20T06:25:58;98453.50;;;15.98;36.80
10176;BME280;18221;38.704;0.152;2023-01-20T06:28:28;98444.63;;;15.97;36.55
10176;BME280;18221;38.704;0.152;2023-01-20T06:31:02;98444.53;;;16.05;37.16
10176;BME280;18221;38.704;0.152;2023-01-20T06:33:32;98454.31;;;15.98;37.10
10176;BME280;18221;38.704;0.152;2023-01-20T06:36:03;98471.78;;;15.94;36.90
10176;BME280;18221;38.704;0.152;2023-01-20T06:38:33;98481.34;;;16.18;36.88
10176;BME280;18221;38.704;0.152;2023-01-20T06:41:04;98501.84;;;16.26;36.16
10176;BME280;18221;38.704;0.152;2023-01-20T06:43:37;98506.53;;;16.38;36.21
10176;BME280;18221;38.704;0.152;2023-01-20T06:46:11;98521.06;;;16.29;36.18
10176;BME280;18221;38.704;0.152;2023-01-20T06:48:40;98500.63;;;16.28;36.62
10176;BME280;18221;38.704;0.152;2023-01-20T06:51:13;98504.91;;;16.23;36.52
10176;BME280;18221;38.704;0.152;2023-01-20T06:53:42;98504.72;;;16.10;37.09
10176;BME280;18221;38.704;0.152;2023-01-20T06:56:12;98514.34;;;15.89;37.17
10176;BME280;18221;38.704;0.152;2023-01-20T06:58:43;98515.44;;;16.10;37.26
10176;BME280;18221;38.704;0.152;2023-01-20T07:01:14;98504.72;;;16.10;36.97
10176;BME280;18221;38.704;0.152;2023-01-20T07:03:43;98486.63;;;16.12;36.96
10176;BME280;18221;38.704;0.152;2023-01-20T07:06:16;98510.34;;;16.15;37.03
10176;BME280;18221;38.704;0.152;2023-01-20T07:08:46;98511.81;;;16.17;36.72
10176;BME280;18221;38.704;0.152;2023-01-20T07:11:14;98516.53;;;16.15;36.84
10176;BME280;18221;38.704;0.152;2023-01-20T07:13:44;98491.00;;;15.98;37.41
10176;BME280;18221;38.704;0.152;2023-01-20T07:16:12;98507.06;;;15.83;37.94
10176;BME280;18221;38.704;0.152;2023-01-20T07:18:41;98512.31;;;15.91;37.57
10176;BME280;18221;38.704;0.152;2023-01-20T07:21:10;98530.78;;;15.86;37.46
10176;BME280;18221;38.704;0.152;2023-01-20T07:23:39;98559.41;;;15.86;37.49
10176;BME280;18221;38.704;0.152;2023-01-20T07:26:10;98560.59;;;15.83;37.70
10176;BME280;18221;38.704;0.152;2023-01-20T07:28:39;98585.81;;;16.03;37.03
10176;BME280;18221;38.704;0.152;2023-01-20T07:31:11;98597.56;;;16.02;37.09
10176;BME280;18221;38.704;0.152;2023-01-20T07:33:40;98580.44;;;16.03;36.88
10176;BME280;18221;38.704;0.152;2023-01-20T07:36:10;98590.97;;;15.90;37.40
10176;BME280;18221;38.704;0.152;2023-01-20T07:38:39;98596.06;;;16.00;37.05
10176;BME280;18221;38.704;0.152;2023-01-20T07:41:10;98613.44;;;16.04;36.76
10176;BME280;18221;38.704;0.152;2023-01-20T07:43:41;98597.00;;;15.92;36.97
10176;BME280;18221;38.704;0.152;2023-01-20T07:46:12;98617.50;;;16.00;36.83
10176;BME280;18221;38.704;0.152;2023-01-20T07:48:40;98622.28;;;16.19;36.82
10176;BME280;18221;38.704;0.152;2023-01-20T07:51:12;98628.88;;;16.31;36.09
10176;BME280;18221;38.704;0.152;2023-01-20T07:53:43;98610.69;;;16.27;35.92
10176;BME280;18221;38.704;0.152;2023-01-20T07:56:15;98626.25;;;16.08;36.12
10176;BME280;18221;38.704;0.152;2023-01-20T07:58:43;98630.34;;;16.04;36.57
10176;BME280;18221;38.704;0.152;2023-01-20T08:01:16;98615.66;;;16.30;36.42
10176;BME280;18221;38.704;0.152;2023-01-20T08:03:45;98631.19;;;16.20;36.43
10176;BME280;18221;38.704;0.152;2023-01-20T08:06:16;98640.97;;;16.13;36.64
10176;BME280;18221;38.704;0.152;2023-01-20T08:08:44;98653.81;;;16.17;36.49
10176;BME280;18221;38.704;0.152;2023-01-20T08:11:14;98643.66;;;16.13;36.54
10176;BME280;18221;38.704;0.152;2023-01-20T08:13:43;98664.34;;;16.19;36.72
10176;BME280;18221;38.704;0.152;2023-01-20T08:16:16;98658.16;;;16.33;36.29
10176;BME280;18221;38.704;0.152;2023-01-20T08:18:45;98689.75;;;16.37;36.32
10176;BME280;18221;38.704;0.152;2023-01-20T08:21:19;98690.50;;;16.31;36.57
10176;BME280;18221;38.704;0.152;2023-01-20T08:23:48;98688.34;;;16.12;36.58
10176;BME280;18221;38.704;0.152;2023-01-20T08:26:17;98685.16;;;16.31;36.48
10176;BME280;18221;38.704;0.152;2023-01-20T08:28:45;98703.72;;;16.33;36.50
10176;BME280;18221;38.704;0.152;2023-01-20T08:31:18;98712.09;;;16.30;36.69
10176;BME280;18221;38.704;0.152;2023-01-20T08:33:47;98719.16;;;16.31;36.60
10176;BME280;18221;38.704;0.152;2023-01-20T08:36:18;98725.63;;;16.36;36.41
10176;BME280;18221;38.704;0.152;2023-01-20T08:38:48;98729.66;;;16.32;36.45
10176;BME280;18221;38.704;0.152;2023-01-20T08:41:19;98753.25;;;16.37;36.70
10176;BME280;18221;38.704;0.152;2023-01-20T08:43:48;98762.59;;;16.41;36.44
10176;BME280;18221;38.704;0.152;2023-01-20T08:46:20;98774.97;;;16.42;36.37
10176;BME280;18221;38.704;0.152;2023-01-20T08:48:49;98770.16;;;16.37;36.24
10176;BME280;18221;38.704;0.152;2023-01-20T08:51:20;98785.94;;;16.32;35.97
10176;BME280;18221;38.704;0.152;2023-01-20T08:53:49;98776.69;;;16.57;35.46
10176;BME280;18221;38.704;0.152;2023-01-20T08:56:18;98786.41;;;16.73;35.12
10176;BME280;18221;38.704;0.152;2023-01-20T08:58:47;98779.38;;;16.72;35.37
10176;BME280;18221;38.704;0.152;2023-01-20T09:01:20;98787.50;;;16.64;34.90
10176;BME280;18221;38.704;0.152;2023-01-20T09:03:49;98806.22;;;16.49;35.20
10176;BME280;18221;38.704;0.152;2023-01-20T09:06:18;98793.97;;;16.55;35.41
10176;BME280;18221;38.704;0.152;2023-01-20T09:08:47;98800.59;;;16.44;35.09
10176;BME280;18221;38.704;0.152;2023-01-20T09:11:18;98790.31;;;16.48;35.16
10176;BME280;18221;38.704;0.152;2023-01-20T09:13:47;98778.50;;;16.42;35.34
10176;BME280;18221;38.704;0.152;2023-01-20T09:16:18;98797.78;;;16.38;34.99
10176;BME280;18221;38.704;0.152;2023-01-20T09:18:46;98799.34;;;16.55;34.81
10176;BME280;18221;38.704;0.152;2023-01-20T09:21:14;98799.09;;;16.42;35.42
10176;BME280;18221;38.704;0.152;2023-01-20T09:23:42;98811.47;;;16.43;34.74
10176;BME280;18221;38.704;0.152;2023-01-20T09:26:14;98813.63;;;16.47;35.64
10176;BME280;18221;38.704;0.152;2023-01-20T09:28:42;98831.56;;;16.47;35.61
10176;BME280;18221;38.704;0.152;2023-01-20T09:31:13;98838.41;;;16.49;35.82
10176;BME280;18221;38.704;0.152;2023-01-20T09:33:43;98863.91;;;16.68;36.10
10176;BME280;18221;38.704;0.152;2023-01-20T09:36:11;98882.25;;;16.56;36.44
10176;BME280;18221;38.704;0.152;2023-01-20T09:38:39;98878.22;;;16.75;36.23
10176;BME280;18221;38.704;0.152;2023-01-20T09:41:29;98881.63;;;16.69;35.73
10176;BME280;18221;38.704;0.152;2023-01-20T09:44:38;98881.75;;;16.53;35.11
10176;BME280;18221;38.704;0.152;2023-01-20T09:47:26;98899.03;;;16.73;34.94
10176;BME280;18221;38.704;0.152;2023-01-20T09:50:34;98896.44;;;16.65;35.50
10176;BME280;18221;38.704;0.152;2023-01-20T09:53:37;98905.16;;;16.36;35.48
10176;BME280;18221;38.704;0.152;2023-01-20T09:56:13;98910.53;;;16.14;35.74
10176;BME280;18221;38.704;0.152;2023-01-20T09:58:52;98912.13;;;16.45;35.45
10176;BME280;18221;38.704;0.152;2023-01-20T10:01:28;98919.06;;;16.40;34.79
10176;BME280;18221;38.704;0.152;2023-01-20T10:04:03;98922.38;;;16.42;34.15
10176;BME280;18221;38.704;0.152;2023-01-20T10:06:41;98930.72;;;16.47;34.83
10176;BME280;18221;38.704;0.152;2023-01-20T10:09:22;98936.91;;;16.55;34.70
10176;BME280;18221;38.704;0.152;2023-01-20T10:12:01;98946.66;;;16.71;34.61
10176;BME280;18221;38.704;0.152;2023-01-20T10:14:39;98939.47;;;16.41;34.06
10176;BME280;18221;38.704;0.152;2023-01-20T10:17:15;98921.41;;;16.35;34.02
10176;BME280;18221;38.704;0.152;2023-01-20T10:19:52;98918.31;;;16.23;33.41
10176;BME280;18221;38.704;0.152;2023-01-20T10:22:34;98915.81;;;16.22;34.29
10176;BME280;18221;38.704;0.152;2023-01-20T10:25:12;98912.38;;;16.36;34.62
10176;BME280;18221;38.704;0.152;2023-01-20T10:27:50;98912.66;;;16.41;34.63
10176;BME280;18221;38.704;0.152;2023-01-20T10:30:24;98908.22;;;16.56;34.79
10176;BME280;18221;38.704;0.152;2023-01-20T10:33:01;98921.00;;;16.68;34.31
10176;BME280;18221;38.704;0.152;2023-01-20T10:35:35;98928.53;;;16.73;34.12
10176;BME280;18221;38.704;0.152;2023-01-20T10:38:12;98938.97;;;16.68;34.68
10176;BME280;18221;38.704;0.152;2023-01-20T10:40:52;98939.38;;;16.57;34.17
10176;BME280;18221;38.704;0.152;2023-01-20T10:43:24;98969.69;;;16.80;34.34
10176;BME280;18221;38.704;0.152;2023-01-20T10:46:30;98970.19;;;16.84;33.72
10176;BME280;18221;38.704;0.152;2023-01-20T10:49:20;98968.25;;;16.92;32.90
10176;BME280;18221;38.704;0.152;2023-01-20T10:52:07;98961.22;;;16.91;32.13
10176;BME280;18221;38.704;0.152;2023-01-20T10:54:52;98965.56;;;16.92;32.46
10176;BME280;18221;38.704;0.152;2023-01-20T10:57:22;98967.16;;;17.01;32.94
10176;BME280;18221;38.704;0.152;2023-01-20T10:59:54;98964.41;;;17.09;32.79
10176;BME280;18221;38.704;0.152;2023-01-20T11:02:27;98967.25;;;17.08;32.52
10176;BME280;18221;38.704;0.152;2023-01-20T11:04:59;98962.38;;;17.11;32.12
10176;BME280;18221;38.704;0.152;2023-01-20T11:07:31;98966.66;;;17.20;32.18
10176;BME280;18221;38.704;0.152;2023-01-20T11:10:14;98970.28;;;17.27;32.07
10176;BME280;18221;38.704;0.152;2023-01-20T11:12:44;98969.16;;;17.37;31.60
10176;BME280;18221;38.704;0.152;2023-01-20T11:15:20;98972.03;;;17.35;31.19
10176;BME280;18221;38.704;0.152;2023-01-20T11:18:24;98961.66;;;17.17;30.91
10176;BME280;18221;38.704;0.152;2023-01-20T11:20:58;98949.44;;;17.29;31.38
10176;BME280;18221;38.704;0.152;2023-01-20T11:23:39;98955.84;;;17.43;30.78
10176;BME280;18221;38.704;0.152;2023-01-20T11:26:19;98954.53;;;17.39;30.73
10176;BME280;18221;38.704;0.152;2023-01-20T11:28:52;98950.75;;;17.34;30.60
10176;BME280;18221;38.704;0.152;2023-01-20T11:31:33;98957.34;;;17.46;30.41
10176;BME280;18221;38.704;0.152;2023-01-20T11:34:21;98958.34;;;17.45;30.11
10176;BME280;18221;38.704;0.152;2023-01-20T11:39:46;98957.63;;;17.65;30.12
10176;BME280;18221;38.704;0.152;2023-01-20T11:42:26;98953.38;;;17.56;30.27
10176;BME280;18221;38.704;0.152;2023-01-20T11:44:57;98944.19;;;17.65;29.89
10176;BME280;18221;38.704;0.152;2023-01-20T11:47:29;98947.44;;;17.61;29.86
10176;BME280;18221;38.704;0.152;2023-01-20T11:50:26;98937.78;;;17.37;29.49
10176;BME280;18221;38.704;0.152;2023-01-20T11:53:16;98947.19;;;17.18;29.62
10176;BME280;18221;38.704;0.152;2023-01-20T11:55:50;98960.75;;;17.40;29.63
10176;BME280;18221;38.704;0.152;2023-01-20T11:58:23;98955.59;;;17.53;29.54
10176;BME280;18221;38.704;0.152;2023-01-20T12:00:59;98974.66;;;17.87;29.24
10176;BME280;18221;38.704;0.152;2023-01-20T12:04:18;98966.53;;;17.80;27.76
10176;BME280;18221;38.704;0.152;2023-01-20T12:06:54;98963.00;;;17.65;27.14
10176;BME280;18221;38.704;0.152;2023-01-20T12:09:31;98950.34;;;17.59;26.36
10176;BME280;18221;38.704;0.152;2023-01-20T12:12:06;98933.53;;;17.43;25.70
10176;BME280;18221;38.704;0.152;2023-01-20T12:14:45;98930.13;;;17.49;25.75
10176;BME280;18221;38.704;0.152;2023-01-20T12:17:29;98910.69;;;17.61;25.58
10176;BME280;18221;38.704;0.152;2023-01-20T12:20:10;98910.09;;;17.37;24.95
10176;BME280;18221;38.704;0.152;2023-01-20T12:22:53;98901.22;;;17.65;24.94
10176;BME280;18221;38.704;0.152;2023-01-20T12:25:29;98916.50;;;17.79;24.80
10176;BME280;18221;38.704;0.152;2023-01-20T12:28:11;98926.22;;;17.51;24.57
10176;BME280;18221;38.704;0.152;2023-01-20T12:30:57;98915.66;;;17.50;22.88
10176;BME280;18221;38.704;0.152;2023-01-20T12:33:31;98918.84;;;17.39;22.68
10176;BME280;18221;38.704;0.152;2023-01-20T12:36:36;98898.09;;;17.18;21.97
10176;BME280;18221;38.704;0.152;2023-01-20T12:40:09;98903.16;;;17.13;21.70
10176;BME280;18221;38.704;0.152;2023-01-20T12:43:20;98899.38;;;17.37;21.84
10176;BME280;18221;38.704;0.152;2023-01-20T12:46:28;98909.47;;;17.35;22.24
10176;BME280;18221;38.704;0.152;2023-01-20T12:49:34;98914.22;;;17.62;22.90
10176;BME280;18221;38.704;0.152;2023-01-20T12:52:22;98929.00;;;17.43;23.84
10176;BME280;18221;38.704;0.152;2023-01-20T12:58:14;98933.63;;;17.78;24.39
10176;BME280;18221;38.704;0.152;2023-01-20T13:01:11;98944.13;;;17.59;24.63
10176;BME280;18221;38.704;0.152;2023-01-20T13:04:30;98939.09;;;17.85;26.00
10176;BME280;18221;38.704;0.152;2023-01-20T13:07:17;98935.50;;;17.78;27.98
10176;BME280;18221;38.704;0.152;2023-01-20T13:10:08;98942.78;;;17.99;28.15
10176;BME280;18221;38.704;0.152;2023-01-20T13:12:48;98942.22;;;17.88;27.86
10176;BME280;18221;38.704;0.152;2023-01-20T13:15:26;98942.38;;;18.02;26.80
10176;BME280;18221;38.704;0.152;2023-01-20T13:18:35;98951.41;;;17.94;29.21
10176;BME280;18221;38.704;0.152;2023-01-20T13:21:06;98953.13;;;18.16;28.84
10176;BME280;18221;38.704;0.152;2023-01-20T13:23:36;98940.06;;;18.13;28.75
10176;BME280;18221;38.704;0.152;2023-01-20T13:26:06;98938.09;;;17.71;29.32
10176;BME280;18221;38.704;0.152;2023-01-20T13:28:35;98922.06;;;17.63;29.40
10176;BME280;18221;38.704;0.152;2023-01-20T13:31:41;98929.03;;;17.72;29.15
10176;BME280;18221;38.704;0.152;2023-01-20T13:34:40;98933.06;;;17.39;28.67
10176;BME280;18221;38.704;0.152;2023-01-20T13:37:35;98934.75;;;17.55;29.11
10176;BME280;18221;38.704;0.152;2023-01-20T13:46:51;98946.56;;;18.04;28.13
10176;BME280;18221;38.704;0.152;2023-01-20T13:49:48;98937.06;;;17.58;28.12
10176;BME280;18221;38.704;0.152;2023-01-20T13:56:23;98936.34;;;17.64;27.03
10176;BME280;18221;38.704;0.152;2023-01-20T13:58:52;98926.13;;;17.45;26.32
10176;BME280;18221;38.704;0.152;2023-01-20T14:01:20;98929.09;;;17.79;26.64
10176;BME280;18221;38.704;0.152;2023-01-20T14:04:01;98930.50;;;17.31;25.94